Darstellungsparameter: Aktuell verwendete Einstellungen:
Skalierung der Graphiken ... ?
xyx+y,   Skalierungsfaktor:      Skalierung: Modus: x, Faktor: 1
Darstellungszeitraum ... ?
Vom - - bis: - -   Zeitraum: 20.10.2020 - 20.10.2020
Min/Max/Avg-Anzeige ... ?
Zeige MMA aktuell
Zeige MMA Monat
Zeige MMA alles
Zeige --A aktuell
Zeige --A Monat
Zeige --A alles
Keine MMA-Anzeige
MMA:
Average (ber die Originaldaten)
MMA-Basis: 20.10.2020 - 20.10.2020
Quicknavigation für Darstellung... ?
Tage:      1T, 2T, 3T, 5T -1T -2T -3T -5T +1T +2T +3T +5T
Wochen: 1W, 2W, 3W -1W -2W -3W +1W +2W +3W
Monate: 1M, 3M, 6M -1M -3M -6M +1M +3M +6M
Jahre:    1J, 3J, 5J, 10J -1J -3J -5J -10J +1J +3J +5J +10J
Nutze für die Darstellung ... ?
Originaldaten oder Mittelwerte auf ...
Stundenbasis Tagesbasis Wochenbasis
Monatsbasis Jahresbasis      Datenbasis: Original-Daten
Darstellen als:
Statistik (Auto) Statistik J:M      Darstellung:

Der gewünschte Datumsbereich war nicht gültig/verfügbar und wurde korrigiert....
Das angegebene Enddatum (24.04.2025 23:59:59) liegt in der Zukunft.
Das angegebene Startdatum (22.04.2025 00:00:00) liegt in der Zukunft.


Zur Graphik,    zurück zur Übersicht aller Sensoren.
 
Tabellarische Datenbersicht: ?
 
Sensor: Nr:Datum:Temp:Abs-Feuchte:Windchill:Wind:
Aussen-T/F 1 20-10-2020 02:00:00 5.4 C 6.56 g/m*3 5.4 C 3.2 km/h
2 20-10-2020 02:05:00 5.4 C 6.56 g/m*3 5.4 C 1.6 km/h
3 20-10-2020 02:10:00 5.4 C 6.56 g/m*3 5.4 C 3.2 km/h
4 20-10-2020 02:15:00 5.3 C 6.45 g/m*3 5.3 C 1.6 km/h
5 20-10-2020 02:20:00 5.2 C 6.4 g/m*3 5.2 C 1.6 km/h
6 20-10-2020 02:25:00 5.2 C 6.4 g/m*3 5.2 C 1.6 km/h
7 20-10-2020 02:30:00 5.1 C 6.36 g/m*3 5.1 C 1.6 km/h
8 20-10-2020 02:35:00 5.1 C 6.36 g/m*3 5.1 C 3.2 km/h
9 20-10-2020 02:40:00 4.9 C 6.28 g/m*3 4.9 C 3.2 km/h
10 20-10-2020 02:45:00 4.9 C 6.35 g/m*3 4.9 C 0 km/h
11 20-10-2020 02:50:00 4.9 C 6.35 g/m*3 4.9 C 1.6 km/h
12 20-10-2020 02:55:00 4.9 C 6.35 g/m*3 4.9 C 4.8 km/h
13 20-10-2020 03:00:00 4.9 C 6.35 g/m*3 4.9 C 1.6 km/h
14 20-10-2020 03:05:00 4.9 C 6.35 g/m*3 4.9 C 3.2 km/h
15 20-10-2020 03:10:00 4.9 C 6.35 g/m*3 4.9 C 3.2 km/h
16 20-10-2020 03:15:00 4.9 C 6.35 g/m*3 4.9 C 4.8 km/h
17 20-10-2020 03:20:00 4.9 C 6.35 g/m*3 4.9 C 1.6 km/h
18 20-10-2020 03:25:00 5 C 6.39 g/m*3 5 C 3.2 km/h
19 20-10-2020 03:30:00 4.9 C 6.35 g/m*3 4.9 C 3.2 km/h
20 20-10-2020 03:35:00 4.9 C 6.35 g/m*3 4.9 C 0 km/h
21 20-10-2020 03:40:00 4.9 C 6.41 g/m*3 4.9 C 3.2 km/h
22 20-10-2020 03:45:00 4.9 C 6.41 g/m*3 4.9 C 1.6 km/h
23 20-10-2020 03:50:00 4.9 C 6.41 g/m*3 4.9 C 3.2 km/h
24 20-10-2020 03:55:00 4.8 C 6.37 g/m*3 4.8 C 3.2 km/h
25 20-10-2020 04:00:00 4.8 C 6.37 g/m*3 4.8 C 1.6 km/h
Sensor: Nr:Datum:Temp:Abs-Feuchte:Windchill:Wind:
Aussen-T/F 26 20-10-2020 04:05:00 4.8 C 6.37 g/m*3 4.8 C 3.2 km/h
27 20-10-2020 04:10:00 4.8 C 6.37 g/m*3 4.8 C 1.6 km/h
28 20-10-2020 04:15:00 4.8 C 6.37 g/m*3 4.8 C 1.6 km/h
29 20-10-2020 04:20:00 4.7 C 6.26 g/m*3 4.7 C 4.8 km/h
30 20-10-2020 04:25:00 4.6 C 6.22 g/m*3 4.6 C 0 km/h
31 20-10-2020 04:30:00 4.6 C 6.29 g/m*3 4.6 C 3.2 km/h
32 20-10-2020 04:35:00 4.6 C 6.29 g/m*3 4.6 C 3.2 km/h
33 20-10-2020 04:40:00 4.6 C 6.29 g/m*3 4.6 C 3.2 km/h
34 20-10-2020 04:45:00 4.5 C 6.24 g/m*3 4.5 C 4.8 km/h
35 20-10-2020 04:50:00 4.4 C 6.2 g/m*3 4.4 C 4.8 km/h
36 20-10-2020 04:55:00 4.4 C 6.2 g/m*3 4.4 C 3.2 km/h
37 20-10-2020 05:00:00 4.5 C 6.24 g/m*3 4.5 C 4.8 km/h
38 20-10-2020 05:05:00 4.6 C 6.29 g/m*3 4.6 C 1.6 km/h
39 20-10-2020 05:10:00 4.7 C 6.33 g/m*3 4.7 C 0 km/h
40 20-10-2020 05:15:00 4.7 C 6.33 g/m*3 4.7 C 1.6 km/h
41 20-10-2020 05:20:00 4.8 C 6.44 g/m*3 4.8 C 3.2 km/h
42 20-10-2020 05:25:00 4.9 C 6.48 g/m*3 4.9 C 0 km/h
43 20-10-2020 05:30:00 5.1 C 6.57 g/m*3 5.1 C 0 km/h
44 20-10-2020 05:35:00 5.2 C 6.61 g/m*3 5.2 C 0 km/h
45 20-10-2020 05:40:00 5.2 C 6.61 g/m*3 5.2 C 3.2 km/h
46 20-10-2020 05:45:00 5.3 C 6.65 g/m*3 5.3 C 0 km/h
47 20-10-2020 05:50:00 5.4 C 6.7 g/m*3 5.4 C 0 km/h
48 20-10-2020 05:55:00 5.4 C 6.7 g/m*3 5.4 C 0 km/h
49 20-10-2020 06:00:00 5.5 C 6.74 g/m*3 5.5 C 0 km/h
50 20-10-2020 06:05:00 5.5 C 6.74 g/m*3 5.5 C 0 km/h
Sensor: Nr:Datum:Temp:Abs-Feuchte:Windchill:Wind:
Aussen-T/F 51 20-10-2020 06:10:00 5.6 C 6.79 g/m*3 5.6 C 3.2 km/h
52 20-10-2020 06:15:00 5.6 C 6.79 g/m*3 5.6 C 3.2 km/h
53 20-10-2020 06:20:00 5.7 C 6.83 g/m*3 5.7 C 0 km/h
54 20-10-2020 06:25:00 5.7 C 6.83 g/m*3 5.7 C 0 km/h
55 20-10-2020 06:30:00 5.6 C 6.79 g/m*3 5.6 C 0 km/h
56 20-10-2020 06:35:00 5.6 C 6.72 g/m*3 5.6 C 0 km/h
57 20-10-2020 06:40:00 5.6 C 6.79 g/m*3 5.6 C 0 km/h
58 20-10-2020 06:45:00 5.6 C 6.79 g/m*3 5.6 C 1.6 km/h
59 20-10-2020 06:55:00 5.6 C 6.79 g/m*3 5.6 C 1.6 km/h
60 20-10-2020 07:00:00 5.7 C 6.83 g/m*3 5.7 C 4.8 km/h
61 20-10-2020 07:05:00 5.8 C 6.88 g/m*3 5.8 C 0 km/h
62 20-10-2020 07:10:00 5.9 C 6.92 g/m*3 5.9 C 0 km/h
63 20-10-2020 07:15:00 5.9 C 6.92 g/m*3 5.9 C 0 km/h
64 20-10-2020 07:20:00 5.9 C 6.92 g/m*3 5.9 C 0 km/h
65 20-10-2020 07:25:00 5.8 C 6.81 g/m*3 5.8 C 0 km/h
66 20-10-2020 07:30:00 5.8 C 6.81 g/m*3 5.8 C 0 km/h
67 20-10-2020 07:35:00 5.8 C 6.81 g/m*3 5.8 C 0 km/h
68 20-10-2020 07:40:00 5.8 C 6.88 g/m*3 5.8 C 0 km/h
69 20-10-2020 07:45:00 5.8 C 6.88 g/m*3 5.8 C 0 km/h
70 20-10-2020 07:50:00 5.8 C 6.88 g/m*3 5.8 C 0 km/h
71 20-10-2020 07:55:00 5.9 C 6.92 g/m*3 5.9 C 0 km/h
72 20-10-2020 08:00:00 5.9 C 6.92 g/m*3 5.9 C 0 km/h
73 20-10-2020 08:05:00 5.9 C 6.85 g/m*3 5.9 C 3.2 km/h
74 20-10-2020 08:10:00 5.9 C 6.85 g/m*3 5.9 C 0 km/h
75 20-10-2020 08:15:00 5.9 C 6.85 g/m*3 5.9 C 0 km/h
Sensor: Nr:Datum:Temp:Abs-Feuchte:Windchill:Wind:
Aussen-T/F 76 20-10-2020 08:20:00 5.9 C 6.85 g/m*3 5.9 C 1.6 km/h
77 20-10-2020 08:25:00 6 C 6.97 g/m*3 6 C 0 km/h
78 20-10-2020 08:30:00 6 C 6.97 g/m*3 6 C 1.6 km/h
79 20-10-2020 08:35:00 6 C 6.9 g/m*3 6 C 0 km/h
80 20-10-2020 08:40:00 5.9 C 6.85 g/m*3 5.9 C 0 km/h
81 20-10-2020 08:45:00 5.9 C 6.85 g/m*3 5.9 C 0 km/h
82 20-10-2020 08:50:00 5.9 C 6.85 g/m*3 5.9 C 0 km/h
83 20-10-2020 08:55:00 6 C 6.97 g/m*3 6 C 0 km/h
84 20-10-2020 09:00:00 6.1 C 7.01 g/m*3 6.1 C 0 km/h
85 20-10-2020 09:05:00 6.2 C 7.06 g/m*3 6.2 C 0 km/h
86 20-10-2020 09:10:00 6.3 C 7.11 g/m*3 6.3 C 0 km/h
87 20-10-2020 09:15:00 6.3 C 7.11 g/m*3 6.3 C 0 km/h
88 20-10-2020 09:20:00 6.5 C 7.2 g/m*3 6.5 C 1.6 km/h
89 20-10-2020 09:25:00 6.6 C 7.25 g/m*3 6.6 C 0 km/h
90 20-10-2020 09:30:00 6.7 C 7.29 g/m*3 6.7 C 0 km/h
91 20-10-2020 09:35:00 6.8 C 7.34 g/m*3 6.8 C 0 km/h
92 20-10-2020 09:40:00 6.9 C 7.39 g/m*3 6.9 C 0 km/h
93 20-10-2020 09:45:00 7.1 C 7.49 g/m*3 7.1 C 1.6 km/h
94 20-10-2020 09:50:00 7.2 C 7.54 g/m*3 7.2 C 0 km/h
95 20-10-2020 09:55:00 7.3 C 7.58 g/m*3 6.25 C 6.4 km/h
96 20-10-2020 10:00:00 7.4 C 7.63 g/m*3 7.4 C 3.2 km/h
97 20-10-2020 10:05:00 7.5 C 7.68 g/m*3 7.5 C 0 km/h
98 20-10-2020 10:10:00 7.7 C 7.78 g/m*3 7.7 C 0 km/h
99 20-10-2020 10:15:00 7.8 C 7.83 g/m*3 7.8 C 0 km/h
100 20-10-2020 10:20:00 8 C 7.94 g/m*3 8 C 1.6 km/h
Sensor: Nr:Datum:Temp:Abs-Feuchte:Windchill:Wind:
Aussen-T/F 101 20-10-2020 10:25:00 8.2 C 8.04 g/m*3 8.2 C 3.2 km/h
102 20-10-2020 10:30:00 8.2 C 7.96 g/m*3 8.2 C 0 km/h
103 20-10-2020 10:35:00 8.3 C 8.01 g/m*3 8.3 C 0 km/h
104 20-10-2020 10:40:00 8.4 C 8.06 g/m*3 8.4 C 0 km/h
105 20-10-2020 10:45:00 8.4 C 8.06 g/m*3 8.4 C 1.6 km/h
106 20-10-2020 10:50:00 8.6 C 8.08 g/m*3 8.6 C 0 km/h
107 20-10-2020 10:55:00 8.7 C 8.13 g/m*3 8.7 C 1.6 km/h
108 20-10-2020 11:00:00 8.8 C 8.18 g/m*3 8.8 C 0 km/h
109 20-10-2020 11:05:00 8.9 C 8.32 g/m*3 8.9 C 0 km/h
110 20-10-2020 11:10:00 9.2 C 8.48 g/m*3 9.2 C 0 km/h
111 20-10-2020 11:15:00 9.4 C 8.59 g/m*3 9.4 C 0 km/h
112 20-10-2020 11:20:00 9.6 C 8.61 g/m*3 9.6 C 0 km/h
113 20-10-2020 11:25:00 9.8 C 8.72 g/m*3 9.8 C 1.6 km/h
114 20-10-2020 11:30:00 9.9 C 8.68 g/m*3 9.9 C 0 km/h
115 20-10-2020 11:35:00 10.1 C 8.79 g/m*3 10.1 C 0 km/h
116 20-10-2020 11:40:00 10.3 C 8.91 g/m*3 10.3 C 0 km/h
117 20-10-2020 11:45:00 10.5 C 9.12 g/m*3 10.5 C 0 km/h
118 20-10-2020 11:50:00 10.7 C 9.13 g/m*3 10.7 C 0 km/h
119 20-10-2020 11:55:00 10.8 C 9.19 g/m*3 10.8 C 0 km/h
120 20-10-2020 12:00:00 10.9 C 9.15 g/m*3 10.9 C 0 km/h
121 20-10-2020 12:05:00 11 C 9.21 g/m*3 11 C 0 km/h
122 20-10-2020 12:10:00 11.2 C 9.33 g/m*3 11.2 C 0 km/h
123 20-10-2020 12:15:00 11.3 C 9.38 g/m*3 11.3 C 0 km/h
124 20-10-2020 12:20:00 11.4 C 9.44 g/m*3 11.4 C 0 km/h
125 20-10-2020 12:25:00 11.5 C 9.5 g/m*3 11.5 C 0 km/h
Sensor: Nr:Datum:Temp:Abs-Feuchte:Windchill:Wind:
Aussen-T/F 126 20-10-2020 12:30:00 11.6 C 9.56 g/m*3 11.6 C 0 km/h
127 20-10-2020 12:35:00 11.7 C 9.62 g/m*3 11.7 C 0 km/h
128 20-10-2020 12:40:00 11.7 C 9.62 g/m*3 11.7 C 0 km/h
129 20-10-2020 12:45:00 11.7 C 9.52 g/m*3 11.7 C 0 km/h
130 20-10-2020 12:50:00 11.7 C 9.52 g/m*3 11.7 C 0 km/h
131 20-10-2020 12:55:00 11.7 C 9.52 g/m*3 11.7 C 0 km/h
132 20-10-2020 13:00:00 11.7 C 9.52 g/m*3 11.7 C 0 km/h
133 20-10-2020 13:05:00 11.7 C 9.52 g/m*3 11.7 C 0 km/h
134 20-10-2020 13:10:00 11.8 C 9.68 g/m*3 11.8 C 0 km/h
135 20-10-2020 13:15:00 11.8 C 9.68 g/m*3 11.8 C 3.2 km/h
136 20-10-2020 13:20:00 11.8 C 9.68 g/m*3 11.8 C 1.6 km/h
137 20-10-2020 13:25:00 11.8 C 9.68 g/m*3 11.8 C 0 km/h
138 20-10-2020 13:30:00 11.8 C 9.68 g/m*3 11.8 C 0 km/h
139 20-10-2020 13:35:00 11.8 C 9.68 g/m*3 11.8 C 0 km/h
140 20-10-2020 13:40:00 11.8 C 9.68 g/m*3 11.8 C 0 km/h
141 20-10-2020 13:45:00 11.8 C 9.68 g/m*3 11.8 C 0 km/h
142 20-10-2020 13:50:00 11.8 C 9.68 g/m*3 11.8 C 0 km/h
143 20-10-2020 13:55:00 11.7 C 9.62 g/m*3 11.7 C 0 km/h
144 20-10-2020 14:00:00 11.7 C 9.62 g/m*3 11.7 C 1.6 km/h
145 20-10-2020 14:05:00 11.7 C 9.62 g/m*3 11.7 C 0 km/h
146 20-10-2020 14:10:00 11.7 C 9.62 g/m*3 11.7 C 1.6 km/h
147 20-10-2020 14:15:00 11.7 C 9.62 g/m*3 11.7 C 0 km/h
148 20-10-2020 14:20:00 11.8 C 9.68 g/m*3 11.8 C 1.6 km/h
149 20-10-2020 14:25:00 11.8 C 9.68 g/m*3 11.8 C 0 km/h
150 20-10-2020 14:30:00 11.8 C 9.68 g/m*3 11.8 C 0 km/h
Sensor: Nr:Datum:Temp:Abs-Feuchte:Windchill:Wind:
Aussen-T/F 151 20-10-2020 14:35:00 11.9 C 9.74 g/m*3 11.9 C 0 km/h
152 20-10-2020 14:40:00 12 C 9.8 g/m*3 12 C 0 km/h
153 20-10-2020 14:45:00 12.1 C 9.87 g/m*3 12.1 C 0 km/h
154 20-10-2020 14:50:00 12.2 C 9.93 g/m*3 12.2 C 0 km/h
155 20-10-2020 14:55:00 12.3 C 9.99 g/m*3 12.3 C 0 km/h
156 20-10-2020 15:00:00 12.3 C 9.88 g/m*3 12.3 C 0 km/h
157 20-10-2020 15:05:00 12.4 C 9.94 g/m*3 12.4 C 0 km/h
158 20-10-2020 15:10:00 12.4 C 9.94 g/m*3 12.4 C 1.6 km/h
159 20-10-2020 15:15:00 12.5 C 10 g/m*3 12.5 C 0 km/h
160 20-10-2020 15:20:00 12.6 C 10.07 g/m*3 12.6 C 0 km/h
161 20-10-2020 15:25:00 12.6 C 10.07 g/m*3 12.6 C 0 km/h
162 20-10-2020 15:30:00 12.6 C 10.07 g/m*3 12.6 C 0 km/h
163 20-10-2020 15:35:00 12.6 C 10.07 g/m*3 12.6 C 0 km/h
164 20-10-2020 15:40:00 12.6 C 9.96 g/m*3 12.6 C 0 km/h
165 20-10-2020 15:45:00 12.7 C 10.13 g/m*3 12.7 C 0 km/h
166 20-10-2020 15:50:00 12.7 C 10.13 g/m*3 12.7 C 0 km/h
167 20-10-2020 15:55:00 12.7 C 10.13 g/m*3 12.7 C 0 km/h
168 20-10-2020 16:00:00 12.7 C 10.13 g/m*3 12.7 C 0 km/h
169 20-10-2020 16:05:00 12.7 C 10.13 g/m*3 12.7 C 0 km/h
170 20-10-2020 16:10:00 12.7 C 10.13 g/m*3 12.7 C 0 km/h
171 20-10-2020 16:15:00 12.6 C 10.07 g/m*3 12.6 C 0 km/h
172 20-10-2020 16:20:00 12.5 C 10 g/m*3 12.5 C 0 km/h
173 20-10-2020 16:25:00 12.4 C 9.94 g/m*3 12.4 C 0 km/h
174 20-10-2020 16:30:00 12.4 C 9.94 g/m*3 12.4 C 0 km/h
175 20-10-2020 16:35:00 12.3 C 9.88 g/m*3 12.3 C 0 km/h
Sensor: Nr:Datum:Temp:Abs-Feuchte:Windchill:Wind:
Aussen-T/F 176 20-10-2020 16:40:00 12.3 C 9.88 g/m*3 12.3 C 1.6 km/h
177 20-10-2020 16:45:00 12.3 C 9.88 g/m*3 12.3 C 0 km/h
178 20-10-2020 16:50:00 12.2 C 9.82 g/m*3 12.2 C 1.6 km/h
179 20-10-2020 16:55:00 12.2 C 9.93 g/m*3 12.2 C 1.6 km/h
180 20-10-2020 17:00:00 12.2 C 9.82 g/m*3 12.2 C 1.6 km/h
181 20-10-2020 17:05:00 12.2 C 9.93 g/m*3 12.2 C 0 km/h
182 20-10-2020 17:10:00 12.1 C 9.87 g/m*3 12.1 C 3.2 km/h
183 20-10-2020 17:15:00 12.1 C 9.87 g/m*3 12.1 C 3.2 km/h
184 20-10-2020 17:20:00 12.1 C 9.87 g/m*3 12.1 C 0 km/h
185 20-10-2020 17:25:00 12.1 C 9.87 g/m*3 12.1 C 1.6 km/h
186 20-10-2020 17:30:00 12.1 C 9.87 g/m*3 12.1 C 0 km/h
187 20-10-2020 17:35:00 12.1 C 9.87 g/m*3 12.1 C 0 km/h
188 20-10-2020 17:40:00 12.1 C 9.87 g/m*3 12.1 C 0 km/h
189 20-10-2020 17:45:00 12 C 9.8 g/m*3 12 C 0 km/h
190 20-10-2020 17:50:00 11.9 C 9.74 g/m*3 11.9 C 0 km/h
191 20-10-2020 17:55:00 11.9 C 9.74 g/m*3 11.9 C 0 km/h
192 20-10-2020 18:00:00 11.9 C 9.74 g/m*3 11.9 C 0 km/h
193 20-10-2020 18:05:00 11.9 C 9.74 g/m*3 11.9 C 0 km/h
194 20-10-2020 18:10:00 11.8 C 9.68 g/m*3 11.8 C 3.2 km/h
195 20-10-2020 18:15:00 11.8 C 9.79 g/m*3 11.8 C 1.6 km/h
196 20-10-2020 18:20:00 11.8 C 9.79 g/m*3 11.8 C 0 km/h
197 20-10-2020 18:25:00 11.8 C 9.79 g/m*3 11.8 C 3.2 km/h
198 20-10-2020 18:30:00 11.7 C 9.73 g/m*3 11.7 C 0 km/h
199 20-10-2020 18:35:00 11.7 C 9.73 g/m*3 11.7 C 0 km/h
200 20-10-2020 18:40:00 11.7 C 9.73 g/m*3 11.7 C 0 km/h
Sensor: Nr:Datum:Temp:Abs-Feuchte:Windchill:Wind:
Aussen-T/F 201 20-10-2020 18:45:00 11.7 C 9.73 g/m*3 11.7 C 0 km/h
202 20-10-2020 18:50:00 11.7 C 9.73 g/m*3 11.7 C 0 km/h
203 20-10-2020 18:55:00 11.7 C 9.73 g/m*3 11.7 C 3.2 km/h
204 20-10-2020 19:00:00 11.7 C 9.73 g/m*3 11.7 C 0 km/h
205 20-10-2020 19:05:00 11.7 C 9.73 g/m*3 11.7 C 3.2 km/h
206 20-10-2020 19:10:00 11.7 C 9.73 g/m*3 11.7 C 4.8 km/h
207 20-10-2020 19:15:00 11.7 C 9.83 g/m*3 11.7 C 1.6 km/h
208 20-10-2020 19:20:00 11.7 C 9.83 g/m*3 11.7 C 0 km/h
209 20-10-2020 19:25:00 11.7 C 9.83 g/m*3 11.7 C 3.2 km/h
210 20-10-2020 19:30:00 11.7 C 9.83 g/m*3 11.7 C 1.6 km/h
211 20-10-2020 19:35:00 11.7 C 9.83 g/m*3 11.7 C 3.2 km/h
212 20-10-2020 19:40:00 11.7 C 9.83 g/m*3 11.7 C 3.2 km/h
213 20-10-2020 19:45:00 11.7 C 9.83 g/m*3 11.7 C 3.2 km/h
214 20-10-2020 19:50:00 11.7 C 9.83 g/m*3 11.7 C 4.8 km/h
215 20-10-2020 19:55:00 11.7 C 9.83 g/m*3 11.7 C 3.2 km/h
216 20-10-2020 20:00:00 11.7 C 9.83 g/m*3 11.7 C 1.6 km/h
217 20-10-2020 20:05:00 11.8 C 9.89 g/m*3 11.8 C 1.6 km/h
218 20-10-2020 20:10:00 11.8 C 9.89 g/m*3 11.8 C 4.8 km/h
219 20-10-2020 20:15:00 11.8 C 9.89 g/m*3 11.8 C 1.6 km/h
220 20-10-2020 20:20:00 11.9 C 9.96 g/m*3 11.9 C 1.6 km/h
221 20-10-2020 20:25:00 11.9 C 9.96 g/m*3 11.9 C 0 km/h
222 20-10-2020 20:30:00 12 C 10.02 g/m*3 12 C 3.2 km/h
223 20-10-2020 20:35:00 12 C 10.02 g/m*3 12 C 0 km/h
224 20-10-2020 20:40:00 12 C 9.91 g/m*3 12 C 3.2 km/h
225 20-10-2020 20:45:00 12 C 9.91 g/m*3 12 C 1.6 km/h
Sensor: Nr:Datum:Temp:Abs-Feuchte:Windchill:Wind:
Aussen-T/F 226 20-10-2020 20:50:00 12 C 9.91 g/m*3 12 C 1.6 km/h
227 20-10-2020 20:55:00 11.9 C 9.85 g/m*3 11.9 C 3.2 km/h
228 20-10-2020 21:00:00 11.9 C 9.85 g/m*3 11.9 C 0 km/h
229 20-10-2020 21:05:00 11.9 C 9.85 g/m*3 11.9 C 1.6 km/h
230 20-10-2020 21:10:00 11.9 C 9.85 g/m*3 11.9 C 3.2 km/h
231 20-10-2020 21:15:00 11.8 C 9.79 g/m*3 11.8 C 1.6 km/h
232 20-10-2020 21:20:00 11.8 C 9.79 g/m*3 11.8 C 0 km/h
233 20-10-2020 21:25:00 11.8 C 9.79 g/m*3 11.8 C 0 km/h
234 20-10-2020 21:30:00 11.7 C 9.62 g/m*3 11.7 C 0 km/h
235 20-10-2020 21:35:00 11.7 C 9.62 g/m*3 11.7 C 1.6 km/h
236 20-10-2020 21:40:00 11.7 C 9.73 g/m*3 11.7 C 1.6 km/h
237 20-10-2020 21:45:00 11.7 C 9.73 g/m*3 11.7 C 3.2 km/h
238 20-10-2020 21:50:00 11.7 C 9.62 g/m*3 11.7 C 0 km/h
239 20-10-2020 21:55:00 11.6 C 9.67 g/m*3 11.6 C 3.2 km/h
240 20-10-2020 22:00:00 11.6 C 9.67 g/m*3 11.6 C 1.6 km/h
241 20-10-2020 22:05:00 11.6 C 9.67 g/m*3 11.6 C 0 km/h
242 20-10-2020 22:10:00 11.6 C 9.67 g/m*3 11.6 C 1.6 km/h
243 20-10-2020 22:15:00 11.6 C 9.67 g/m*3 11.6 C 0 km/h
244 20-10-2020 22:20:00 11.6 C 9.67 g/m*3 11.6 C 3.2 km/h
245 20-10-2020 22:25:00 11.6 C 9.67 g/m*3 11.6 C 3.2 km/h
246 20-10-2020 22:30:00 11.5 C 9.61 g/m*3 11.5 C 3.2 km/h
247 20-10-2020 22:35:00 11.6 C 9.67 g/m*3 11.6 C 4.8 km/h
248 20-10-2020 22:40:00 11.6 C 9.67 g/m*3 11.6 C 1.6 km/h
249 20-10-2020 22:45:00 11.6 C 9.67 g/m*3 11.6 C 1.6 km/h
250 20-10-2020 22:50:00 11.6 C 9.67 g/m*3 11.6 C 1.6 km/h
Sensor: Nr:Datum:Temp:Abs-Feuchte:Windchill:Wind:
Aussen-T/F 251 20-10-2020 22:55:00 11.7 C 9.73 g/m*3 11.7 C 0 km/h
252 20-10-2020 23:00:00 11.7 C 9.73 g/m*3 11.7 C 0 km/h
253 20-10-2020 23:05:00 11.7 C 9.73 g/m*3 11.7 C 1.6 km/h
254 20-10-2020 23:10:00 11.7 C 9.73 g/m*3 11.7 C 0 km/h
255 20-10-2020 23:15:00 11.8 C 9.79 g/m*3 11.8 C 1.6 km/h
256 20-10-2020 23:20:00 11.8 C 9.79 g/m*3 11.8 C 1.6 km/h
257 20-10-2020 23:25:00 11.8 C 9.79 g/m*3 11.8 C 3.2 km/h
258 20-10-2020 23:30:00 11.8 C 9.79 g/m*3 11.8 C 1.6 km/h
259 20-10-2020 23:35:00 11.8 C 9.79 g/m*3 11.8 C 0 km/h
260 20-10-2020 23:40:00 11.8 C 9.79 g/m*3 11.8 C 0 km/h
261 20-10-2020 23:45:00 11.8 C 9.79 g/m*3 11.8 C 0 km/h
262 20-10-2020 23:50:00 11.8 C 9.79 g/m*3 11.8 C 0 km/h
263 20-10-2020 23:55:00 11.9 C 9.85 g/m*3 11.9 C 0 km/h

Legende:
   Min
   Max


Maximal/Minimal-Werte vom 20.10.2020 - 20.10.2020

Sensor Min Max Avg
Temp
(Aussen-T/F)
4.4 °C
20-10-2020  04:50:00
12.7 °C
20-10-2020  15:45:00
9.3 °C
Abs-Feuchte
(Aussen-T/F)
6.2 g/m*3
20-10-2020  04:50:00
10.13 g/m*3
20-10-2020  15:45:00
8.49 g/m*3
Windchill
(Aussen-T/F)
4.4 C
20-10-2020  04:50:00
12.7 C
20-10-2020  15:45:00
9.26 C

Die Daten stammen von einer Davis Vantage Pro 2 Wetter-Station und werden unter Linux mit der Software wview2wettercgi und aufbereitet. Alle Angaben erfolgen ohne Gewähr für ihre Vollständigkeit oder Richtigkeit.
Kontakt: Rainer Krienke krienke@uni-koblenz.de . Meine Webseiten an der Uni Koblenz oder privat.
Version: $Revision: 0.78 $